Terminal Aerodrome Forecast
Issued by NWS

Home | Current Version | Previous Version | Text Only | Print | Product List | Glossary On
Versions: 1 2 3 4 5 6 7 8 9 10 11 12
144
FTUS45 KRIW 301743
TAFWRL
TAF
KWRL 301743Z 3018/3118 VRB04KT P6SM VCSH SCT040 OVC080
     FM302100 35010KT P6SM SCT070 BKN100
     FM310600 33018G28KT P6SM VCSH SCT030 BKN040
     FM311400 33016G26KT P6SM -RA OVC040=

USA.gov is the U.S. government's official web portal to all federal, state and local government web resources and services.